sensor_id;sensor_type;location;lat;lon;timestamp;P1;durP1;ratioP1;P2;durP2;ratioP2
62535;SDS011;63050;47.514;18.920;2023-03-15T00:01:46;2.50;;;1.30;;
62535;SDS011;63050;47.514;18.920;2023-03-15T00:06:47;1.70;;;1.20;;
62535;SDS011;63050;47.514;18.920;2023-03-15T00:11:48;1.80;;;1.10;;
62535;SDS011;63050;47.514;18.920;2023-03-15T00:16:49;2.70;;;1.40;;
62535;SDS011;63050;47.514;18.920;2023-03-15T00:21:50;1.40;;;1.00;;
62535;SDS011;63050;47.514;18.920;2023-03-15T00:26:52;1.90;;;1.20;;
62535;SDS011;63050;47.514;18.920;2023-03-15T00:31:53;2.20;;;1.30;;
62535;SDS011;63050;47.514;18.920;2023-03-15T00:36:55;2.00;;;1.20;;
62535;SDS011;63050;47.514;18.920;2023-03-15T00:41:56;2.30;;;1.10;;
62535;SDS011;63050;47.514;18.920;2023-03-15T00:46:58;1.80;;;1.00;;
62535;SDS011;63050;47.514;18.920;2023-03-15T00:51:59;3.80;;;1.20;;
62535;SDS011;63050;47.514;18.920;2023-03-15T00:57:00;2.10;;;1.20;;
62535;SDS011;63050;47.514;18.920;2023-03-15T01:02:02;1.70;;;1.20;;
62535;SDS011;63050;47.514;18.920;2023-03-15T01:07:05;2.00;;;1.20;;
62535;SDS011;63050;47.514;18.920;2023-03-15T01:12:07;2.20;;;1.20;;
62535;SDS011;63050;47.514;18.920;2023-03-15T01:17:08;2.00;;;1.20;;
62535;SDS011;63050;47.514;18.920;2023-03-15T01:22:09;2.60;;;1.30;;
62535;SDS011;63050;47.514;18.920;2023-03-15T01:27:10;1.70;;;1.20;;
62535;SDS011;63050;47.514;18.920;2023-03-15T01:32:12;1.60;;;1.10;;
62535;SDS011;63050;47.514;18.920;2023-03-15T01:37:14;2.50;;;1.30;;
62535;SDS011;63050;47.514;18.920;2023-03-15T01:42:18;2.50;;;1.20;;
62535;SDS011;63050;47.514;18.920;2023-03-15T01:47:19;3.00;;;1.40;;
62535;SDS011;63050;47.514;18.920;2023-03-15T01:52:23;2.20;;;1.30;;
62535;SDS011;63050;47.514;18.920;2023-03-15T01:57:31;2.50;;;1.60;;
62535;SDS011;63050;47.514;18.920;2023-03-15T02:02:42;3.30;;;1.50;;
62535;SDS011;63050;47.514;18.920;2023-03-15T02:08:06;2.00;;;1.10;;
62535;SDS011;63050;47.514;18.920;2023-03-15T02:13:10;4.10;;;1.40;;
62535;SDS011;63050;47.514;18.920;2023-03-15T02:18:13;2.10;;;1.30;;
62535;SDS011;63050;47.514;18.920;2023-03-15T02:23:19;2.00;;;1.20;;
62535;SDS011;63050;47.514;18.920;2023-03-15T02:28:21;2.80;;;1.30;;
62535;SDS011;63050;47.514;18.920;2023-03-15T02:33:26;1.40;;;1.00;;
62535;SDS011;63050;47.514;18.920;2023-03-15T02:38:29;1.50;;;1.10;;
62535;SDS011;63050;47.514;18.920;2023-03-15T02:43:30;1.90;;;1.20;;
62535;SDS011;63050;47.514;18.920;2023-03-15T02:48:33;2.50;;;1.50;;
62535;SDS011;63050;47.514;18.920;2023-03-15T02:53:34;2.80;;;1.50;;
62535;SDS011;63050;47.514;18.920;2023-03-15T02:58:35;1.80;;;1.20;;
62535;SDS011;63050;47.514;18.920;2023-03-15T03:03:37;2.30;;;1.70;;
62535;SDS011;63050;47.514;18.920;2023-03-15T03:08:38;2.00;;;1.40;;
62535;SDS011;63050;47.514;18.920;2023-03-15T03:13:41;1.90;;;1.30;;
62535;SDS011;63050;47.514;18.920;2023-03-15T03:18:43;1.80;;;1.40;;
62535;SDS011;63050;47.514;18.920;2023-03-15T03:23:44;1.60;;;1.20;;
62535;SDS011;63050;47.514;18.920;2023-03-15T03:28:46;1.40;;;1.00;;
62535;SDS011;63050;47.514;18.920;2023-03-15T03:33:48;1.50;;;1.10;;
62535;SDS011;63050;47.514;18.920;2023-03-15T03:38:50;1.40;;;0.90;;
62535;SDS011;63050;47.514;18.920;2023-03-15T03:43:52;1.60;;;1.20;;
62535;SDS011;63050;47.514;18.920;2023-03-15T03:48:54;1.80;;;0.90;;
62535;SDS011;63050;47.514;18.920;2023-03-15T03:53:56;2.50;;;0.90;;
62535;SDS011;63050;47.514;18.920;2023-03-15T03:58:57;1.00;;;0.90;;
62535;SDS011;63050;47.514;18.920;2023-03-15T04:04:05;1.10;;;0.90;;
62535;SDS011;63050;47.514;18.920;2023-03-15T04:09:06;1.50;;;0.90;;
62535;SDS011;63050;47.514;18.920;2023-03-15T04:14:13;1.40;;;1.10;;
62535;SDS011;63050;47.514;18.920;2023-03-15T04:19:16;2.10;;;0.90;;
62535;SDS011;63050;47.514;18.920;2023-03-15T04:24:18;2.00;;;1.10;;
62535;SDS011;63050;47.514;18.920;2023-03-15T04:29:34;1.10;;;0.90;;
62535;SDS011;63050;47.514;18.920;2023-03-15T04:34:50;1.70;;;1.00;;
62535;SDS011;63050;47.514;18.920;2023-03-15T04:40:11;1.10;;;0.90;;
62535;SDS011;63050;47.514;18.920;2023-03-15T04:45:24;1.00;;;0.80;;
62535;SDS011;63050;47.514;18.920;2023-03-15T04:50:32;2.30;;;1.00;;
62535;SDS011;63050;47.514;18.920;2023-03-15T04:55:42;1.10;;;1.00;;
62535;SDS011;63050;47.514;18.920;2023-03-15T05:01:16;1.30;;;1.00;;
62535;SDS011;63050;47.514;18.920;2023-03-15T05:06:35;1.60;;;1.10;;
62535;SDS011;63050;47.514;18.920;2023-03-15T05:11:48;1.40;;;1.10;;
62535;SDS011;63050;47.514;18.920;2023-03-15T05:17:12;1.70;;;1.50;;
62535;SDS011;63050;47.514;18.920;2023-03-15T05:22:33;3.40;;;1.60;;
62535;SDS011;63050;47.514;18.920;2023-03-15T05:27:57;2.80;;;1.70;;
62535;SDS011;63050;47.514;18.920;2023-03-15T05:33:12;2.20;;;1.70;;
62535;SDS011;63050;47.514;18.920;2023-03-15T05:38:36;2.20;;;1.70;;
62535;SDS011;63050;47.514;18.920;2023-03-15T05:43:40;2.40;;;2.10;;
62535;SDS011;63050;47.514;18.920;2023-03-15T05:49:01;2.80;;;2.20;;
62535;SDS011;63050;47.514;18.920;2023-03-15T05:54:21;4.10;;;2.10;;
62535;SDS011;63050;47.514;18.920;2023-03-15T05:59:31;3.00;;;2.70;;
62535;SDS011;63050;47.514;18.920;2023-03-15T06:04:41;3.40;;;2.50;;
62535;SDS011;63050;47.514;18.920;2023-03-15T06:09:43;2.80;;;2.30;;
62535;SDS011;63050;47.514;18.920;2023-03-15T06:14:44;2.60;;;2.10;;
62535;SDS011;63050;47.514;18.920;2023-03-15T06:19:45;3.00;;;2.70;;
62535;SDS011;63050;47.514;18.920;2023-03-15T06:24:47;5.10;;;2.80;;
62535;SDS011;63050;47.514;18.920;2023-03-15T06:29:48;3.00;;;2.60;;
62535;SDS011;63050;47.514;18.920;2023-03-15T06:34:51;3.00;;;2.50;;
62535;SDS011;63050;47.514;18.920;2023-03-15T06:39:53;3.00;;;1.90;;
62535;SDS011;63050;47.514;18.920;2023-03-15T06:44:54;3.50;;;2.40;;
62535;SDS011;63050;47.514;18.920;2023-03-15T06:49:56;3.70;;;2.40;;
62535;SDS011;63050;47.514;18.920;2023-03-15T06:54:57;3.50;;;2.50;;
62535;SDS011;63050;47.514;18.920;2023-03-15T06:59:59;4.40;;;2.90;;
62535;SDS011;63050;47.514;18.920;2023-03-15T07:05:00;3.60;;;2.70;;
62535;SDS011;63050;47.514;18.920;2023-03-15T07:10:01;3.60;;;2.90;;
62535;SDS011;63050;47.514;18.920;2023-03-15T07:15:02;6.00;;;3.10;;
62535;SDS011;63050;47.514;18.920;2023-03-15T07:20:03;3.50;;;2.80;;
62535;SDS011;63050;47.514;18.920;2023-03-15T07:25:05;2.90;;;1.90;;
62535;SDS011;63050;47.514;18.920;2023-03-15T07:30:07;3.40;;;2.00;;
62535;SDS011;63050;47.514;18.920;2023-03-15T07:35:09;3.70;;;2.20;;
62535;SDS011;63050;47.514;18.920;2023-03-15T07:40:11;4.20;;;2.50;;
62535;SDS011;63050;47.514;18.920;2023-03-15T07:45:13;4.70;;;3.00;;
62535;SDS011;63050;47.514;18.920;2023-03-15T07:50:14;4.30;;;2.30;;
62535;SDS011;63050;47.514;18.920;2023-03-15T07:55:17;4.90;;;2.90;;
62535;SDS011;63050;47.514;18.920;2023-03-15T08:00:18;4.90;;;2.80;;
62535;SDS011;63050;47.514;18.920;2023-03-15T08:05:20;5.70;;;2.90;;
62535;SDS011;63050;47.514;18.920;2023-03-15T08:10:21;3.80;;;2.50;;
62535;SDS011;63050;47.514;18.920;2023-03-15T08:15:22;5.00;;;2.10;;
62535;SDS011;63050;47.514;18.920;2023-03-15T08:20:24;3.60;;;1.90;;
62535;SDS011;63050;47.514;18.920;2023-03-15T08:25:25;5.00;;;1.90;;
62535;SDS011;63050;47.514;18.920;2023-03-15T08:30:26;4.20;;;2.20;;
62535;SDS011;63050;47.514;18.920;2023-03-15T08:35:28;3.50;;;2.40;;
62535;SDS011;63050;47.514;18.920;2023-03-15T08:40:31;5.60;;;2.50;;
62535;SDS011;63050;47.514;18.920;2023-03-15T08:45:32;5.90;;;2.30;;
62535;SDS011;63050;47.514;18.920;2023-03-15T08:50:33;4.30;;;1.90;;
62535;SDS011;63050;47.514;18.920;2023-03-15T08:55:34;4.00;;;2.30;;
62535;SDS011;63050;47.514;18.920;2023-03-15T09:00:35;4.50;;;2.50;;
62535;SDS011;63050;47.514;18.920;2023-03-15T09:05:37;4.70;;;2.10;;
62535;SDS011;63050;47.514;18.920;2023-03-15T09:10:38;4.60;;;2.40;;
62535;SDS011;63050;47.514;18.920;2023-03-15T09:15:39;6.90;;;2.50;;
62535;SDS011;63050;47.514;18.920;2023-03-15T09:20:40;4.90;;;2.00;;
62535;SDS011;63050;47.514;18.920;2023-03-15T09:25:41;5.80;;;2.10;;
62535;SDS011;63050;47.514;18.920;2023-03-15T09:30:42;8.80;;;3.60;;
62535;SDS011;63050;47.514;18.920;2023-03-15T09:35:43;5.30;;;2.80;;
62535;SDS011;63050;47.514;18.920;2023-03-15T09:40:45;6.20;;;2.40;;
62535;SDS011;63050;47.514;18.920;2023-03-15T09:56:10;5.50;;;2.50;;
62535;SDS011;63050;47.514;18.920;2023-03-15T10:01:24;3.60;;;2.30;;
62535;SDS011;63050;47.514;18.920;2023-03-15T10:06:32;4.50;;;2.30;;
62535;SDS011;63050;47.514;18.920;2023-03-15T10:11:44;6.90;;;2.70;;
62535;SDS011;63050;47.514;18.920;2023-03-15T10:16:58;6.10;;;2.90;;
62535;SDS011;63050;47.514;18.920;2023-03-15T10:27:56;4.80;;;3.20;;
62535;SDS011;63050;47.514;18.920;2023-03-15T10:33:01;5.50;;;3.40;;
62535;SDS011;63050;47.514;18.920;2023-03-15T10:38:18;5.30;;;2.70;;
62535;SDS011;63050;47.514;18.920;2023-03-15T10:43:30;6.50;;;2.10;;
62535;SDS011;63050;47.514;18.920;2023-03-15T10:48:35;4.40;;;2.20;;
62535;SDS011;63050;47.514;18.920;2023-03-15T10:53:45;4.30;;;2.50;;
62535;SDS011;63050;47.514;18.920;2023-03-15T10:58:52;5.50;;;2.40;;
62535;SDS011;63050;47.514;18.920;2023-03-15T11:09:20;6.00;;;2.60;;
62535;SDS011;63050;47.514;18.920;2023-03-15T11:14:23;5.20;;;2.60;;
62535;SDS011;63050;47.514;18.920;2023-03-15T11:19:26;6.20;;;2.90;;
62535;SDS011;63050;47.514;18.920;2023-03-15T11:24:30;5.50;;;2.60;;
62535;SDS011;63050;47.514;18.920;2023-03-15T11:29:32;7.20;;;3.00;;
62535;SDS011;63050;47.514;18.920;2023-03-15T11:34:39;5.80;;;2.90;;
62535;SDS011;63050;47.514;18.920;2023-03-15T11:39:53;5.10;;;2.90;;
62535;SDS011;63050;47.514;18.920;2023-03-15T11:45:01;6.20;;;3.10;;
62535;SDS011;63050;47.514;18.920;2023-03-15T11:50:11;4.30;;;2.50;;
62535;SDS011;63050;47.514;18.920;2023-03-15T11:55:15;7.10;;;3.00;;
62535;SDS011;63050;47.514;18.920;2023-03-15T12:10:42;6.10;;;3.10;;
62535;SDS011;63050;47.514;18.920;2023-03-15T12:15:49;6.70;;;2.70;;
62535;SDS011;63050;47.514;18.920;2023-03-15T12:21:14;5.30;;;2.80;;
62535;SDS011;63050;47.514;18.920;2023-03-15T12:31:56;5.00;;;2.70;;
62535;SDS011;63050;47.514;18.920;2023-03-15T12:37:00;6.00;;;2.60;;
62535;SDS011;63050;47.514;18.920;2023-03-15T12:42:05;5.00;;;2.30;;
62535;SDS011;63050;47.514;18.920;2023-03-15T12:47:09;4.90;;;2.50;;
62535;SDS011;63050;47.514;18.920;2023-03-15T12:57:14;4.00;;;2.10;;
62535;SDS011;63050;47.514;18.920;2023-03-15T13:02:29;3.80;;;2.00;;
62535;SDS011;63050;47.514;18.920;2023-03-15T13:18:21;4.40;;;2.00;;
62535;SDS011;63050;47.514;18.920;2023-03-15T13:23:27;6.50;;;2.20;;
62535;SDS011;63050;47.514;18.920;2023-03-15T13:33:36;4.60;;;1.80;;
62535;SDS011;63050;47.514;18.920;2023-03-15T13:38:39;4.00;;;1.90;;
62535;SDS011;63050;47.514;18.920;2023-03-15T13:43:41;9.60;;;2.00;;
62535;SDS011;63050;47.514;18.920;2023-03-15T13:48:43;5.40;;;1.80;;
62535;SDS011;63050;47.514;18.920;2023-03-15T13:53:46;5.50;;;2.10;;
62535;SDS011;63050;47.514;18.920;2023-03-15T13:58:48;5.10;;;2.10;;
62535;SDS011;63050;47.514;18.920;2023-03-15T14:03:59;4.40;;;2.00;;
62535;SDS011;63050;47.514;18.920;2023-03-15T14:09:08;5.30;;;1.80;;
62535;SDS011;63050;47.514;18.920;2023-03-15T14:14:24;5.00;;;2.00;;
62535;SDS011;63050;47.514;18.920;2023-03-15T14:19:31;3.50;;;1.90;;
62535;SDS011;63050;47.514;18.920;2023-03-15T14:24:38;4.00;;;2.20;;
62535;SDS011;63050;47.514;18.920;2023-03-15T14:29:53;5.40;;;2.00;;
62535;SDS011;63050;47.514;18.920;2023-03-15T14:35:05;4.50;;;2.00;;
62535;SDS011;63050;47.514;18.920;2023-03-15T14:45:35;5.40;;;2.20;;
62535;SDS011;63050;47.514;18.920;2023-03-15T14:50:39;4.90;;;2.40;;
62535;SDS011;63050;47.514;18.920;2023-03-15T14:55:41;4.60;;;2.30;;
62535;SDS011;63050;47.514;18.920;2023-03-15T15:00:43;6.60;;;2.80;;
62535;SDS011;63050;47.514;18.920;2023-03-15T15:05:46;6.30;;;2.40;;
62535;SDS011;63050;47.514;18.920;2023-03-15T15:10:48;4.80;;;1.90;;
62535;SDS011;63050;47.514;18.920;2023-03-15T15:15:51;5.80;;;2.20;;
62535;SDS011;63050;47.514;18.920;2023-03-15T15:20:57;3.80;;;2.00;;
62535;SDS011;63050;47.514;18.920;2023-03-15T15:26:01;5.80;;;2.10;;
62535;SDS011;63050;47.514;18.920;2023-03-15T15:31:05;5.50;;;2.50;;
62535;SDS011;63050;47.514;18.920;2023-03-15T15:36:09;5.00;;;2.10;;
62535;SDS011;63050;47.514;18.920;2023-03-15T15:41:13;4.60;;;2.40;;
62535;SDS011;63050;47.514;18.920;2023-03-15T15:46:15;3.40;;;2.10;;
62535;SDS011;63050;47.514;18.920;2023-03-15T15:56:29;5.00;;;2.30;;
62535;SDS011;63050;47.514;18.920;2023-03-15T16:01:33;3.80;;;2.20;;
62535;SDS011;63050;47.514;18.920;2023-03-15T16:06:34;3.70;;;2.50;;
62535;SDS011;63050;47.514;18.920;2023-03-15T16:11:36;4.40;;;2.30;;
62535;SDS011;63050;47.514;18.920;2023-03-15T16:16:38;4.90;;;2.30;;
62535;SDS011;63050;47.514;18.920;2023-03-15T16:21:41;5.10;;;2.40;;
62535;SDS011;63050;47.514;18.920;2023-03-15T16:26:48;5.00;;;2.40;;
62535;SDS011;63050;47.514;18.920;2023-03-15T16:31:50;4.50;;;2.70;;
62535;SDS011;63050;47.514;18.920;2023-03-15T16:36:53;4.50;;;2.30;;
62535;SDS011;63050;47.514;18.920;2023-03-15T16:41:55;3.40;;;2.10;;
62535;SDS011;63050;47.514;18.920;2023-03-15T16:46:57;5.80;;;2.50;;
62535;SDS011;63050;47.514;18.920;2023-03-15T16:51:59;3.70;;;2.10;;
62535;SDS011;63050;47.514;18.920;2023-03-15T16:57:01;5.50;;;2.30;;
62535;SDS011;63050;47.514;18.920;2023-03-15T17:02:05;5.10;;;2.00;;
62535;SDS011;63050;47.514;18.920;2023-03-15T17:07:15;3.90;;;2.20;;
62535;SDS011;63050;47.514;18.920;2023-03-15T17:12:27;4.00;;;2.10;;
62535;SDS011;63050;47.514;18.920;2023-03-15T17:17:29;6.00;;;2.50;;
62535;SDS011;63050;47.514;18.920;2023-03-15T17:22:31;5.00;;;2.50;;
62535;SDS011;63050;47.514;18.920;2023-03-15T17:27:40;5.60;;;2.70;;
62535;SDS011;63050;47.514;18.920;2023-03-15T17:32:43;6.40;;;2.70;;
62535;SDS011;63050;47.514;18.920;2023-03-15T17:37:45;4.40;;;2.40;;
62535;SDS011;63050;47.514;18.920;2023-03-15T17:42:47;4.70;;;2.00;;
62535;SDS011;63050;47.514;18.920;2023-03-15T17:47:50;2.90;;;1.40;;
62535;SDS011;63050;47.514;18.920;2023-03-15T17:52:58;14.90;;;8.50;;
62535;SDS011;63050;47.514;18.920;2023-03-15T17:58:02;4.20;;;2.40;;
62535;SDS011;63050;47.514;18.920;2023-03-15T18:03:11;5.00;;;2.60;;
62535;SDS011;63050;47.514;18.920;2023-03-15T18:08:16;3.90;;;2.20;;
62535;SDS011;63050;47.514;18.920;2023-03-15T18:13:20;6.70;;;2.80;;
62535;SDS011;63050;47.514;18.920;2023-03-15T18:18:23;5.60;;;2.40;;
62535;SDS011;63050;47.514;18.920;2023-03-15T18:23:25;4.00;;;2.00;;
62535;SDS011;63050;47.514;18.920;2023-03-15T18:28:28;5.80;;;2.70;;
62535;SDS011;63050;47.514;18.920;2023-03-15T18:33:30;4.20;;;2.30;;
62535;SDS011;63050;47.514;18.920;2023-03-15T18:38:32;4.70;;;2.10;;
62535;SDS011;63050;47.514;18.920;2023-03-15T18:43:34;5.00;;;2.20;;
62535;SDS011;63050;47.514;18.920;2023-03-15T18:48:36;6.90;;;2.60;;
62535;SDS011;63050;47.514;18.920;2023-03-15T18:53:43;4.90;;;2.20;;
62535;SDS011;63050;47.514;18.920;2023-03-15T18:58:47;3.30;;;1.80;;
62535;SDS011;63050;47.514;18.920;2023-03-15T19:03:49;7.30;;;1.80;;
62535;SDS011;63050;47.514;18.920;2023-03-15T19:08:54;3.70;;;2.00;;
62535;SDS011;63050;47.514;18.920;2023-03-15T19:13:57;4.40;;;2.00;;
62535;SDS011;63050;47.514;18.920;2023-03-15T19:18:59;3.70;;;1.80;;
62535;SDS011;63050;47.514;18.920;2023-03-15T19:24:04;3.80;;;1.80;;
62535;SDS011;63050;47.514;18.920;2023-03-15T19:29:06;3.40;;;1.50;;
62535;SDS011;63050;47.514;18.920;2023-03-15T19:34:09;2.50;;;1.40;;
62535;SDS011;63050;47.514;18.920;2023-03-15T19:39:11;6.60;;;2.20;;
62535;SDS011;63050;47.514;18.920;2023-03-15T19:44:14;4.20;;;1.80;;
62535;SDS011;63050;47.514;18.920;2023-03-15T19:49:16;3.50;;;2.10;;
62535;SDS011;63050;47.514;18.920;2023-03-15T19:54:17;3.70;;;1.80;;
62535;SDS011;63050;47.514;18.920;2023-03-15T19:59:19;2.90;;;1.70;;
62535;SDS011;63050;47.514;18.920;2023-03-15T20:04:22;3.80;;;1.80;;
62535;SDS011;63050;47.514;18.920;2023-03-15T20:09:27;5.10;;;2.50;;
62535;SDS011;63050;47.514;18.920;2023-03-15T20:14:29;5.80;;;2.50;;
62535;SDS011;63050;47.514;18.920;2023-03-15T20:19:31;5.20;;;2.20;;
62535;SDS011;63050;47.514;18.920;2023-03-15T20:24:33;4.00;;;2.50;;
62535;SDS011;63050;47.514;18.920;2023-03-15T20:29:36;3.60;;;2.10;;
62535;SDS011;63050;47.514;18.920;2023-03-15T20:34:39;7.80;;;2.40;;
62535;SDS011;63050;47.514;18.920;2023-03-15T20:39:41;5.70;;;2.70;;
62535;SDS011;63050;47.514;18.920;2023-03-15T20:44:43;8.10;;;3.00;;
62535;SDS011;63050;47.514;18.920;2023-03-15T20:49:45;4.70;;;2.90;;
62535;SDS011;63050;47.514;18.920;2023-03-15T20:54:48;5.10;;;2.60;;
62535;SDS011;63050;47.514;18.920;2023-03-15T20:59:51;3.70;;;2.30;;
62535;SDS011;63050;47.514;18.920;2023-03-15T21:04:54;3.50;;;2.20;;
62535;SDS011;63050;47.514;18.920;2023-03-15T21:09:56;4.80;;;2.60;;
62535;SDS011;63050;47.514;18.920;2023-03-15T21:14:58;4.60;;;2.10;;
62535;SDS011;63050;47.514;18.920;2023-03-15T21:20:02;6.60;;;2.30;;
62535;SDS011;63050;47.514;18.920;2023-03-15T21:25:07;3.70;;;2.00;;
62535;SDS011;63050;47.514;18.920;2023-03-15T21:30:09;6.10;;;2.20;;
62535;SDS011;63050;47.514;18.920;2023-03-15T21:35:13;3.70;;;2.30;;
62535;SDS011;63050;47.514;18.920;2023-03-15T21:40:16;6.40;;;2.40;;
62535;SDS011;63050;47.514;18.920;2023-03-15T21:45:18;5.50;;;2.20;;
62535;SDS011;63050;47.514;18.920;2023-03-15T21:50:19;4.00;;;2.10;;
62535;SDS011;63050;47.514;18.920;2023-03-15T21:55:24;4.90;;;2.30;;
62535;SDS011;63050;47.514;18.920;2023-03-15T22:00:25;8.50;;;2.20;;
62535;SDS011;63050;47.514;18.920;2023-03-15T22:05:28;6.00;;;2.00;;
62535;SDS011;63050;47.514;18.920;2023-03-15T22:10:29;5.60;;;2.00;;
62535;SDS011;63050;47.514;18.920;2023-03-15T22:15:30;4.40;;;2.00;;
62535;SDS011;63050;47.514;18.920;2023-03-15T22:20:33;4.70;;;1.90;;
62535;SDS011;63050;47.514;18.920;2023-03-15T22:25:36;5.30;;;2.30;;
62535;SDS011;63050;47.514;18.920;2023-03-15T22:30:39;3.80;;;2.10;;
62535;SDS011;63050;47.514;18.920;2023-03-15T22:35:41;5.50;;;2.00;;
62535;SDS011;63050;47.514;18.920;2023-03-15T22:40:42;4.80;;;1.80;;
62535;SDS011;63050;47.514;18.920;2023-03-15T22:45:43;5.60;;;2.50;;
62535;SDS011;63050;47.514;18.920;2023-03-15T22:50:44;5.80;;;2.40;;
62535;SDS011;63050;47.514;18.920;2023-03-15T22:55:45;4.00;;;2.40;;
62535;SDS011;63050;47.514;18.920;2023-03-15T23:00:47;4.50;;;2.80;;
62535;SDS011;63050;47.514;18.920;2023-03-15T23:05:48;4.50;;;2.60;;
62535;SDS011;63050;47.514;18.920;2023-03-15T23:10:49;6.70;;;3.10;;
62535;SDS011;63050;47.514;18.920;2023-03-15T23:15:50;4.10;;;2.80;;
62535;SDS011;63050;47.514;18.920;2023-03-15T23:20:52;7.30;;;3.60;;
62535;SDS011;63050;47.514;18.920;2023-03-15T23:26:03;4.40;;;3.10;;
62535;SDS011;63050;47.514;18.920;2023-03-15T23:31:05;8.70;;;3.20;;
62535;SDS011;63050;47.514;18.920;2023-03-15T23:36:06;4.90;;;2.60;;
62535;SDS011;63050;47.514;18.920;2023-03-15T23:41:08;6.50;;;3.20;;
62535;SDS011;63050;47.514;18.920;2023-03-15T23:46:09;4.70;;;2.50;;
62535;SDS011;63050;47.514;18.920;2023-03-15T23:51:10;5.60;;;2.40;;
62535;SDS011;63050;47.514;18.920;2023-03-15T23:56:12;4.80;;;2.70;;
